Time;durP1;ratioP1;P1;durP2;ratioP2;P2;SDS_P1;SDS_P2;PMS_P1;PMS_P2;Temp;Humidity;BMP_temperature;BMP_pressure;BME280_temperature;BME280_humidity;BME280_pressure;Samples;Min_cycle;Max_cycle;Signal;HPM_P1;HPM_P2
2020/12/27 00:02:17;;;;;;;7.50;6.43;;;6.40;90.60;;;;;;5047146;28;20049;-64
2020/12/27 00:04:43;;;;;;;6.88;5.20;;;6.30;90.70;;;;;;5047490;28;20051;-64
2020/12/27 00:07:11;;;;;;;5.32;4.80;;;6.40;90.80;;;;;;5046992;28;20048;-64
2020/12/27 00:09:38;;;;;;;7.50;6.78;;;6.50;90.60;;;;;;5047290;28;20083;-64
2020/12/27 00:12:05;;;;;;;4.78;4.20;;;6.30;90.70;;;;;;5047161;28;20049;-64
2020/12/27 00:14:31;;;;;;;6.90;5.15;;;6.30;91.10;;;;;;5047343;28;20045;-64
2020/12/27 00:17:11;;;;;;;6.97;5.85;;;6.30;90.90;;;;;;5046675;28;20068;-64
2020/12/27 00:19:38;;;;;;;8.38;6.60;;;6.20;90.80;;;;;;5047027;28;20061;-64
2020/12/27 00:22:04;;;;;;;6.07;5.47;;;6.10;91.00;;;;;;5046943;28;20045;-64
2020/12/27 00:24:31;;;;;;;6.72;6.03;;;6.30;90.80;;;;;;5047172;28;20069;-64
2020/12/27 00:26:57;;;;;;;7.20;6.50;;;6.40;90.60;;;;;;5046583;28;20065;-64
2020/12/27 00:29:23;;;;;;;7.35;6.65;;;6.20;90.70;;;;;;5047246;28;20049;-64
2020/12/27 00:31:53;;;;;;;6.93;6.22;;;6.40;90.50;;;;;;5046763;28;20045;-64
2020/12/27 00:34:19;;;;;;;6.25;4.90;;;6.40;90.30;;;;;;5047686;28;20521;-64
2020/12/27 00:36:45;;;;;;;6.65;5.97;;;6.60;90.00;;;;;;5045952;28;20049;-64
2020/12/27 00:39:12;;;;;;;6.70;5.57;;;6.40;90.20;;;;;;5046530;28;20049;-64
2020/12/27 00:41:37;;;;;;;6.28;5.47;;;6.40;90.00;;;;;;5046719;28;20045;-64
2020/12/27 00:44:04;;;;;;;5.78;5.00;;;6.40;89.90;;;;;;5046761;28;20060;-64
2020/12/27 00:46:30;;;;;;;4.38;3.53;;;6.50;89.50;;;;;;5037378;28;20056;-64
2020/12/27 00:48:56;;;;;;;5.93;5.32;;;6.60;89.30;;;;;;5046664;28;20046;-64
2020/12/27 00:51:24;;;;;;;6.80;5.65;;;6.40;89.70;;;;;;5046147;28;20045;-64
2020/12/27 00:53:51;;;;;;;5.95;4.95;;;6.50;89.10;;;;;;5046785;28;20045;-64
2020/12/27 00:56:17;;;;;;;4.38;3.92;;;6.70;88.00;;;;;;5046300;28;20505;-64
2020/12/27 00:58:43;;;;;;;3.70;3.40;;;6.50;89.10;;;;;;5046031;28;20600;-64
2020/12/27 01:01:10;;;;;;;4.35;3.13;;;6.50;90.00;;;;;;5045974;28;20061;-64
2020/12/27 01:03:36;;;;;;;7.72;4.13;;;6.70;89.20;;;;;;5046092;28;20076;-64
2020/12/27 01:06:03;;;;;;;4.43;3.22;;;6.50;89.40;;;;;;5045671;28;20049;-65
2020/12/27 01:08:29;;;;;;;4.88;4.30;;;6.60;89.30;;;;;;5045435;28;20048;-64
2020/12/27 01:10:55;;;;;;;5.00;4.53;;;6.40;89.70;;;;;;5046149;28;20057;-64
2020/12/27 01:13:21;;;;;;;4.93;3.78;;;6.50;89.00;;;;;;5046129;28;20611;-64
2020/12/27 01:15:47;;;;;;;3.65;2.75;;;6.50;89.70;;;;;;5046272;28;20037;-64
2020/12/27 01:18:14;;;;;;;3.10;2.80;;;6.70;88.90;;;;;;5045831;28;20041;-64
2020/12/27 01:20:40;;;;;;;3.72;3.42;;;6.80;87.70;;;;;;5045987;28;20109;-64
2020/12/27 01:23:05;;;;;;;4.45;4.05;;;6.60;88.80;;;;;;5045692;28;20049;-64
2020/12/27 01:25:32;;;;;;;5.05;3.28;;;6.70;88.10;;;;;;5046224;28;20048;-64
2020/12/27 01:27:58;;;;;;;3.83;3.53;;;6.60;89.40;;;;;;5046213;28;20072;-64
2020/12/27 01:30:24;;;;;;;3.78;2.90;;;6.50;88.90;;;;;;5045811;28;20049;-64
2020/12/27 01:32:50;;;;;;;3.70;3.40;;;6.50;89.60;;;;;;5046026;28;20466;-64
2020/12/27 01:35:16;;;;;;;4.25;3.88;;;6.30;90.20;;;;;;5045499;28;20053;-64
2020/12/27 01:37:42;;;;;;;4.05;3.65;;;6.30;90.00;;;;;;5045077;28;20049;-64
2020/12/27 01:40:08;;;;;;;3.28;2.75;;;6.30;89.70;;;;;;5045400;28;20042;-64
2020/12/27 01:42:34;;;;;;;4.63;3.63;;;6.40;89.30;;;;;;5045469;28;20053;-64
2020/12/27 01:45:00;;;;;;;3.05;2.72;;;6.20;90.00;;;;;;5045353;28;20049;-64
2020/12/27 01:47:31;;;;;;;3.13;2.83;;;6.40;89.20;;;;;;5037328;28;20060;-64
2020/12/27 01:49:58;;;;;;;3.35;3.05;;;6.50;88.80;;;;;;5045217;28;20049;-64
2020/12/27 01:52:24;;;;;;;3.13;2.67;;;6.40;88.50;;;;;;5045447;28;20461;-64
2020/12/27 01:54:51;;;;;;;2.28;2.08;;;6.50;87.20;;;;;;5045636;28;20076;-64
2020/12/27 01:57:29;;;;;;;3.28;2.97;;;6.60;87.20;;;;;;5045469;28;20418;-64
2020/12/27 01:59:55;;;;;;;3.00;2.70;;;6.60;86.70;;;;;;5044866;28;20087;-64
2020/12/27 02:02:21;;;;;;;2.17;1.98;;;6.70;86.20;;;;;;5045081;28;20045;-64
2020/12/27 02:04:47;;;;;;;2.80;2.40;;;6.40;87.30;;;;;;5045045;28;20053;-64
2020/12/27 02:07:13;;;;;;;2.90;2.25;;;6.50;87.10;;;;;;5045198;28;20136;-64
2020/12/27 02:09:40;;;;;;;3.00;2.70;;;6.60;86.40;;;;;;5044872;28;20076;-64
2020/12/27 02:12:07;;;;;;;2.67;2.47;;;6.50;86.90;;;;;;5044941;28;20049;-64
2020/12/27 02:14:34;;;;;;;3.38;3.08;;;6.40;87.90;;;;;;5044914;28;20065;-64
2020/12/27 02:17:02;;;;;;;3.22;2.63;;;6.30;88.00;;;;;;5044801;28;20125;-64
2020/12/27 02:19:28;;;;;;;3.67;2.58;;;6.30;88.50;;;;;;5044348;28;20101;-64
2020/12/27 02:21:54;;;;;;;2.97;2.63;;;6.40;88.40;;;;;;5045034;28;20053;-64
2020/12/27 02:24:20;;;;;;;2.17;1.73;;;6.40;90.00;;;;;;5044925;28;20081;-64
2020/12/27 02:26:57;;;;;;;3.33;3.00;;;6.30;90.00;;;;;;5044817;28;20077;-64
2020/12/27 02:29:23;;;;;;;3.40;3.00;;;6.10;90.40;;;;;;5044646;28;20060;-64
2020/12/27 02:31:49;;;;;;;3.30;2.55;;;6.20;90.70;;;;;;5044699;28;20045;-64
2020/12/27 02:34:15;;;;;;;3.40;3.10;;;6.10;90.60;;;;;;5044547;28;20061;-64
2020/12/27 02:36:41;;;;;;;2.45;2.22;;;6.00;90.80;;;;;;5044407;28;20042;-64
2020/12/27 02:39:12;;;;;;;2.90;2.60;;;6.20;90.20;;;;;;5044347;28;20045;-64
2020/12/27 02:41:38;;;;;;;2.75;2.08;;;6.00;90.30;;;;;;5045387;28;20046;-64
2020/12/27 02:44:04;;;;;;;2.97;2.10;;;6.10;89.90;;;;;;5044674;28;20471;-64
2020/12/27 02:46:30;;;;;;;2.15;1.92;;;6.10;89.90;;;;;;5040250;28;20041;-64
2020/12/27 02:48:56;;;;;;;3.50;1.98;;;5.90;90.10;;;;;;5039926;28;20038;-64
2020/12/27 02:51:23;;;;;;;2.95;2.05;;;6.10;89.90;;;;;;5044827;28;20048;-65
2020/12/27 02:53:49;;;;;;;2.10;1.90;;;6.10;89.40;;;;;;5044448;28;20075;-64
2020/12/27 02:56:17;;;;;;;2.95;2.75;;;6.10;89.30;;;;;;5044429;28;20072;-64
2020/12/27 02:58:43;;;;;;;2.10;1.70;;;5.90;89.80;;;;;;5044127;28;20046;-64
2020/12/27 03:01:09;;;;;;;2.55;2.30;;;5.90;89.10;;;;;;5044158;28;20057;-64
2020/12/27 03:03:35;;;;;;;4.05;2.33;;;6.00;88.40;;;;;;5045177;28;20489;-64
2020/12/27 03:06:01;;;;;;;2.65;2.33;;;5.90;88.30;;;;;;5035018;28;20042;-63
2020/12/27 03:08:27;;;;;;;3.42;2.08;;;5.80;88.60;;;;;;5044029;28;20045;-64
2020/12/27 03:10:53;;;;;;;1.65;1.50;;;5.80;89.00;;;;;;5044463;28;20141;-64
2020/12/27 03:13:18;;;;;;;2.92;2.35;;;6.00;88.10;;;;;;5044268;28;20050;-64
2020/12/27 03:15:44;;;;;;;1.92;1.73;;;6.00;88.00;;;;;;5044392;28;20075;-64
2020/12/27 03:18:10;;;;;;;2.30;2.10;;;6.10;86.70;;;;;;5043998;28;20412;-63
2020/12/27 03:20:36;;;;;;;2.13;1.92;;;6.10;86.10;;;;;;5044006;28;20371;-64
2020/12/27 03:23:01;;;;;;;2.00;1.80;;;6.10;86.10;;;;;;5044633;28;20056;-64
2020/12/27 03:25:27;;;;;;;2.53;2.25;;;6.10;85.30;;;;;;5044051;28;20045;-64
2020/12/27 03:27:54;;;;;;;3.10;1.92;;;6.10;85.10;;;;;;5044244;28;20043;-64
2020/12/27 03:30:19;;;;;;;1.95;1.73;;;6.10;85.10;;;;;;5045062;28;20065;-63
2020/12/27 03:32:45;;;;;;;2.22;1.85;;;6.10;87.00;;;;;;5047874;28;20046;-64
2020/12/27 03:35:11;;;;;;;2.58;2.25;;;6.00;86.30;;;;;;5048085;28;20052;-63
2020/12/27 03:37:37;;;;;;;2.58;2.35;;;6.10;85.90;;;;;;5047581;28;20069;-64
2020/12/27 03:40:07;;;;;;;2.08;1.45;;;5.90;86.20;;;;;;5047687;28;20053;-64
2020/12/27 03:42:34;;;;;;;3.42;2.20;;;6.10;85.80;;;;;;5047843;28;20045;-64
2020/12/27 03:45:00;;;;;;;2.58;2.20;;;6.10;85.90;;;;;;5047663;28;20053;-64
2020/12/27 03:47:26;;;;;;;2.90;2.38;;;5.90;86.60;;;;;;5042732;28;20451;-64
2020/12/27 03:49:52;;;;;;;3.20;2.28;;;5.80;87.10;;;;;;5047691;28;20061;-64
2020/12/27 03:52:18;;;;;;;1.90;1.60;;;6.10;85.60;;;;;;5048049;28;20045;-64
2020/12/27 03:54:44;;;;;;;3.10;2.20;;;6.10;85.10;;;;;;5048072;28;20049;-64
2020/12/27 03:57:10;;;;;;;3.60;2.65;;;6.10;85.00;;;;;;5047417;28;20045;-63
2020/12/27 03:59:35;;;;;;;2.85;2.53;;;6.00;85.70;;;;;;5062418;28;20053;-64
2020/12/27 04:02:01;;;;;;;4.00;2.55;;;5.90;86.30;;;;;;5047330;28;20498;-64
2020/12/27 04:04:27;;;;;;;2.40;2.20;;;5.80;87.10;;;;;;5047300;28;20043;-64
2020/12/27 04:06:53;;;;;;;2.55;2.28;;;6.00;85.50;;;;;;5047160;28;20045;-64
2020/12/27 04:09:19;;;;;;;3.53;2.90;;;6.20;84.50;;;;;;5047333;28;20088;-64
2020/12/27 04:11:45;;;;;;;2.85;2.22;;;5.90;85.40;;;;;;5047198;28;20524;-64
2020/12/27 04:14:10;;;;;;;3.03;2.28;;;6.10;84.90;;;;;;5047342;28;20049;-64
2020/12/27 04:16:36;;;;;;;2.92;2.55;;;6.10;84.70;;;;;;5047052;28;20045;-64
2020/12/27 04:19:02;;;;;;;3.60;3.03;;;6.00;86.00;;;;;;5046792;28;20041;-64
2020/12/27 04:21:28;;;;;;;3.53;3.17;;;5.90;86.50;;;;;;5046989;28;20046;-64
2020/12/27 04:23:54;;;;;;;3.30;2.97;;;5.90;86.60;;;;;;5047045;28;20084;-64
2020/12/27 04:26:19;;;;;;;3.50;2.45;;;6.00;87.20;;;;;;5046705;28;20041;-64
2020/12/27 04:28:46;;;;;;;4.07;3.30;;;5.90;87.60;;;;;;5046838;28;20101;-64
2020/12/27 04:31:13;;;;;;;3.65;2.72;;;5.60;88.70;;;;;;5047574;28;20056;-64
2020/12/27 04:33:40;;;;;;;3.92;2.50;;;5.90;89.30;;;;;;5046846;28;20057;-64
2020/12/27 04:36:06;;;;;;;3.75;3.20;;;6.00;89.10;;;;;;5046352;28;20061;-64
2020/12/27 04:38:32;;;;;;;2.28;1.90;;;5.90;89.80;;;;;;5046242;28;20056;-63
2020/12/27 04:41:00;;;;;;;2.22;1.88;;;5.70;90.30;;;;;;5046509;28;20049;-64
2020/12/27 04:43:27;;;;;;;2.88;2.47;;;5.80;90.20;;;;;;5046459;28;20041;-64
2020/12/27 04:45:59;;;;;;;3.60;2.53;;;5.80;90.10;;;;;;5046681;28;20041;-64
2020/12/27 04:48:29;;;;;;;3.85;2.38;;;5.70;90.40;;;;;;5061995;28;20056;-63
2020/12/27 04:50:56;;;;;;;3.38;2.97;;;5.60;90.00;;;;;;5046411;28;20082;-63
2020/12/27 04:53:22;;;;;;;3.33;3.03;;;5.60;90.60;;;;;;5046636;28;20053;-64
2020/12/27 04:55:51;;;;;;;3.67;3.25;;;5.70;90.30;;;;;;5046347;28;20041;-64
2020/12/27 04:58:22;;;;;;;2.97;2.30;;;5.60;90.30;;;;;;5046249;28;20053;-64
2020/12/27 05:00:48;;;;;;;2.20;2.00;;;5.60;90.80;;;;;;5045905;28;20054;-64
2020/12/27 05:03:15;;;;;;;2.42;2.22;;;5.70;90.70;;;;;;5046390;28;20056;-64
2020/12/27 05:05:41;;;;;;;2.33;2.13;;;5.80;90.40;;;;;;5046328;28;20037;-64
2020/12/27 05:08:07;;;;;;;3.33;3.00;;;5.70;90.60;;;;;;5046029;28;20064;-64
2020/12/27 05:10:39;;;;;;;3.00;2.50;;;5.60;90.60;;;;;;5046019;28;20045;-64
2020/12/27 05:13:05;;;;;;;3.63;2.85;;;5.70;90.60;;;;;;5046169;28;20120;-64
2020/12/27 05:15:33;;;;;;;3.17;2.45;;;5.70;90.80;;;;;;5046256;28;20400;-64
2020/12/27 05:17:58;;;;;;;3.45;2.65;;;5.70;90.80;;;;;;5045903;28;20052;-64
2020/12/27 05:20:25;;;;;;;3.72;2.75;;;5.60;91.00;;;;;;5045971;28;20045;-63
2020/12/27 05:22:50;;;;;;;5.07;2.70;;;5.70;90.90;;;;;;5045797;28;20075;-64
2020/12/27 05:25:16;;;;;;;4.85;2.90;;;5.60;91.00;;;;;;5045744;28;20045;-64
2020/12/27 05:27:43;;;;;;;4.07;2.88;;;5.60;90.70;;;;;;5046675;28;20054;-63
2020/12/27 05:30:09;;;;;;;3.63;2.95;;;5.40;90.80;;;;;;5045785;28;20480;-63
2020/12/27 05:32:36;;;;;;;2.22;1.88;;;5.50;91.10;;;;;;5045799;28;20073;-63
2020/12/27 05:35:10;;;;;;;2.17;1.50;;;5.60;91.10;;;;;;5045677;28;20045;-63
2020/12/27 05:37:37;;;;;;;3.22;1.77;;;5.50;91.50;;;;;;5045372;28;20488;-64
2020/12/27 05:40:05;;;;;;;4.13;2.92;;;5.60;91.20;;;;;;5045677;28;20053;-63
2020/12/27 05:42:31;;;;;;;2.55;2.00;;;5.50;91.40;;;;;;5045454;28;20046;-63
2020/12/27 05:44:59;;;;;;;3.42;2.80;;;5.60;91.50;;;;;;5045555;28;20136;-63
2020/12/27 05:47:25;;;;;;;3.03;2.17;;;5.50;91.40;;;;;;5045217;28;20059;-63
2020/12/27 05:49:51;;;;;;;3.17;2.38;;;5.70;91.00;;;;;;5045676;28;20057;-63
2020/12/27 05:52:18;;;;;;;2.20;2.00;;;5.60;91.10;;;;;;5044787;28;20049;-63
2020/12/27 05:54:47;;;;;;;3.85;2.60;;;5.70;91.20;;;;;;5045236;28;20505;-63
2020/12/27 05:57:16;;;;;;;2.25;1.95;;;5.60;91.00;;;;;;5045264;28;20080;-63
2020/12/27 05:59:45;;;;;;;5.13;2.38;;;5.80;91.10;;;;;;5044828;28;20049;-63
2020/12/27 06:02:39;;;;;;;2.63;1.80;;;5.70;90.90;;;;;;5045106;28;20096;-63
2020/12/27 06:05:15;;;;;;;2.30;2.10;;;5.70;91.00;;;;;;5041645;28;20052;-63
2020/12/27 06:07:45;;;;;;;2.78;2.33;;;5.60;91.40;;;;;;5045791;28;20029;-63
2020/12/27 06:10:14;;;;;;;2.95;2.30;;;5.50;91.50;;;;;;5045302;28;20490;-64
2020/12/27 06:13:12;;;;;;;3.20;2.50;;;5.70;91.10;;;;;;5045519;28;20041;-63
2020/12/27 06:15:46;;;;;;;2.08;1.85;;;5.50;91.60;;;;;;5044658;28;20077;-63
2020/12/27 06:18:16;;;;;;;5.07;2.50;;;5.80;91.10;;;;;;5045041;28;20107;-63
2020/12/27 06:20:44;;;;;;;3.00;1.77;;;5.60;91.10;;;;;;5044761;28;20099;-63
2020/12/27 06:23:11;;;;;;;2.03;1.45;;;5.70;91.20;;;;;;5044972;28;20068;-64
2020/12/27 06:25:40;;;;;;;3.53;1.95;;;5.80;90.90;;;;;;5044508;28;20075;-63
2020/12/27 06:28:06;;;;;;;3.53;1.88;;;5.70;91.10;;;;;;5044802;28;20510;-64
2020/12/27 06:30:39;;;;;;;3.15;1.85;;;5.80;91.10;;;;;;5044759;28;20045;-63
2020/12/27 06:33:13;;;;;;;5.05;2.53;;;5.80;90.90;;;;;;5044687;28;20072;-63
2020/12/27 06:35:38;;;;;;;3.00;2.17;;;5.70;91.30;;;;;;5044220;28;20109;-63
2020/12/27 06:38:21;;;;;;;2.13;1.50;;;5.80;91.30;;;;;;5045363;28;20073;-63
2020/12/27 06:40:58;;;;;;;1.77;1.20;;;5.80;90.90;;;;;;5039680;28;20103;-64
2020/12/27 06:43:24;;;;;;;5.90;1.80;;;5.90;91.00;;;;;;5038946;28;20057;-63
2020/12/27 06:45:51;;;;;;;2.00;1.80;;;5.90;91.00;;;;;;5044544;28;20067;-63
2020/12/27 06:48:33;;;;;;;2.38;1.70;;;5.80;91.00;;;;;;5044345;28;20053;-63
2020/12/27 06:50:59;;;;;;;1.70;1.52;;;5.70;91.30;;;;;;5044281;28;20075;-63
2020/12/27 06:53:41;;;;;;;1.58;1.48;;;5.80;91.10;;;;;;5044565;28;20610;-63
2020/12/27 06:56:12;;;;;;;2.60;1.30;;;5.80;91.20;;;;;;5044310;28;20045;-63
2020/12/27 06:58:39;;;;;;;1.60;1.50;;;5.80;91.10;;;;;;5044201;28;20041;-63
2020/12/27 07:01:22;;;;;;;1.20;1.10;;;5.70;91.30;;;;;;5044307;28;20057;-63
2020/12/27 07:03:48;;;;;;;1.58;1.40;;;5.80;91.20;;;;;;5031118;28;20048;-63
2020/12/27 07:06:16;;;;;;;1.67;0.98;;;5.70;91.50;;;;;;5047253;28;20045;-63
2020/12/27 07:08:44;;;;;;;1.80;1.20;;;5.80;91.10;;;;;;5048613;28;20080;-63
2020/12/27 07:11:15;;;;;;;1.35;1.23;;;5.80;91.10;;;;;;5048393;28;20071;-63
2020/12/27 07:13:44;;;;;;;1.30;1.13;;;5.70;91.30;;;;;;5035397;28;20076;-64
2020/12/27 07:16:12;;;;;;;1.00;0.93;;;5.70;91.10;;;;;;5048197;28;20045;-64
2020/12/27 07:18:38;;;;;;;0.80;0.80;;;5.80;91.20;;;;;;5048280;28;20087;-64
2020/12/27 07:21:11;;;;;;;1.38;1.27;;;5.70;91.40;;;;;;5048185;28;20045;-64
2020/12/27 07:23:43;;;;;;;2.15;1.10;;;5.70;91.50;;;;;;5048151;28;20112;-64
2020/12/27 07:26:11;;;;;;;2.40;1.40;;;5.80;91.40;;;;;;5047889;28;20045;-64
2020/12/27 07:28:37;;;;;;;0.85;0.85;;;5.80;91.20;;;;;;5048102;28;20101;-64
2020/12/27 07:31:05;;;;;;;1.10;1.00;;;5.80;91.30;;;;;;5048111;28;20399;-64
2020/12/27 07:33:33;;;;;;;0.90;0.90;;;5.90;91.30;;;;;;5034908;28;20041;-64
2020/12/27 07:36:08;;;;;;;1.20;1.10;;;5.80;91.60;;;;;;5047510;28;20072;-64
2020/12/27 07:38:40;;;;;;;2.15;1.23;;;5.80;91.60;;;;;;5045537;28;20071;-64
2020/12/27 07:41:06;;;;;;;0.80;0.80;;;5.80;91.70;;;;;;5047737;28;20148;-64
2020/12/27 07:43:32;;;;;;;1.63;0.90;;;5.90;91.40;;;;;;5047901;28;20116;-65
2020/12/27 07:46:08;;;;;;;1.65;1.27;;;5.70;91.70;;;;;;5048866;28;20041;-64
2020/12/27 07:48:43;;;;;;;1.58;1.00;;;5.80;91.80;;;;;;5048160;28;20117;-64
2020/12/27 07:51:13;;;;;;;1.73;1.00;;;5.80;91.80;;;;;;5047774;28;20044;-64
2020/12/27 07:53:48;;;;;;;3.92;1.00;;;5.80;91.60;;;;;;5047368;28;20129;-64
2020/12/27 07:56:25;;;;;;;1.20;0.90;;;5.90;91.60;;;;;;5047454;28;20045;-64
2020/12/27 07:58:58;;;;;;;0.80;0.80;;;5.90;91.60;;;;;;5047455;28;20049;-64
2020/12/27 08:01:24;;;;;;;0.70;0.70;;;6.00;91.30;;;;;;5035350;28;20104;-64
2020/12/27 08:03:55;;;;;;;1.52;0.77;;;5.90;91.60;;;;;;5047324;28;20042;-64
2020/12/27 08:06:21;;;;;;;1.20;1.10;;;5.90;91.80;;;;;;5047336;28;20112;-64
2020/12/27 08:08:48;;;;;;;1.65;0.90;;;5.90;91.80;;;;;;5047220;28;20117;-64
2020/12/27 08:11:18;;;;;;;0.98;0.70;;;5.90;91.70;;;;;;5047335;28;20041;-64
2020/12/27 08:13:50;;;;;;;1.08;0.88;;;6.00;91.70;;;;;;5047080;28;20076;-65
2020/12/27 08:16:16;;;;;;;0.60;0.60;;;6.00;91.90;;;;;;5046573;28;20052;-64
2020/12/27 08:18:42;;;;;;;1.05;0.73;;;6.00;91.50;;;;;;5047019;28;20112;-64
2020/12/27 08:21:07;;;;;;;1.00;1.00;;;6.00;91.70;;;;;;5047246;28;20481;-64
2020/12/27 08:23:33;;;;;;;1.40;0.98;;;5.90;92.00;;;;;;5046947;28;20049;-64
2020/12/27 08:25:59;;;;;;;0.80;0.80;;;6.00;91.30;;;;;;5046999;28;20072;-64
2020/12/27 08:28:25;;;;;;;1.30;1.20;;;6.00;91.50;;;;;;5046892;28;20053;-65
2020/12/27 08:30:51;;;;;;;0.80;0.80;;;5.90;91.50;;;;;;5047158;28;20505;-64
2020/12/27 08:33:19;;;;;;;1.10;1.00;;;5.90;91.80;;;;;;5046612;28;20046;-64
2020/12/27 08:35:47;;;;;;;0.90;0.90;;;6.00;91.60;;;;;;5046335;28;20045;-64
2020/12/27 08:38:22;;;;;;;1.00;1.00;;;5.90;91.90;;;;;;5046659;28;20056;-64
2020/12/27 08:41:07;;;;;;;3.13;1.40;;;5.90;92.00;;;;;;5046654;28;20055;-64
2020/12/27 08:43:51;;;;;;;2.70;1.88;;;5.80;92.00;;;;;;5046642;28;20046;-65
2020/12/27 08:46:21;;;;;;;1.02;1.02;;;5.90;92.00;;;;;;5046802;28;20049;-64
2020/12/27 08:49:14;;;;;;;2.08;1.85;;;5.90;92.00;;;;;;5046328;28;20077;-64
2020/12/27 08:51:43;;;;;;;1.40;1.30;;;5.80;92.00;;;;;;5046356;28;20044;-65
2020/12/27 08:54:12;;;;;;;1.70;1.08;;;5.80;92.00;;;;;;5047271;28;20231;-65
2020/12/27 08:56:38;;;;;;;0.90;0.90;;;5.90;91.70;;;;;;5046159;28;20112;-65
2020/12/27 08:59:04;;;;;;;1.30;1.20;;;6.00;91.90;;;;;;5046220;28;20152;-65
2020/12/27 09:01:30;;;;;;;2.35;1.15;;;6.00;91.90;;;;;;5046325;28;20075;-66
2020/12/27 09:03:57;;;;;;;0.75;0.75;;;6.00;92.00;;;;;;5046113;28;20053;-64
2020/12/27 09:06:23;;;;;;;1.20;1.10;;;6.00;91.90;;;;;;5046228;28;20065;-63
2020/12/27 09:09:00;;;;;;;1.50;1.05;;;6.00;92.20;;;;;;5046047;28;20068;-64
2020/12/27 09:11:27;;;;;;;0.65;0.65;;;6.10;91.90;;;;;;5046262;28;20061;-65
2020/12/27 09:13:54;;;;;;;1.88;0.70;;;6.10;91.70;;;;;;5045532;28;20041;-65
2020/12/27 09:16:49;;;;;;;1.30;1.00;;;6.10;92.00;;;;;;5045658;28;20100;-65
2020/12/27 09:19:15;;;;;;;1.25;1.15;;;5.90;92.30;;;;;;5044519;28;20266;-65
2020/12/27 09:21:42;;;;;;;0.90;0.90;;;6.10;92.00;;;;;;5045447;28;20073;-65
2020/12/27 09:24:15;;;;;;;1.42;1.13;;;6.10;91.90;;;;;;5045286;28;20121;-65
2020/12/27 09:26:41;;;;;;;1.48;1.38;;;6.00;92.00;;;;;;5043416;28;20041;-65
2020/12/27 09:29:19;;;;;;;2.53;2.10;;;6.10;92.00;;;;;;5044705;28;20053;-65
2020/12/27 09:31:46;;;;;;;1.55;1.10;;;6.00;92.00;;;;;;5046384;28;20241;-65
2020/12/27 09:34:12;;;;;;;1.20;1.10;;;6.10;91.70;;;;;;5046333;28;20045;-64
2020/12/27 09:36:39;;;;;;;1.25;1.00;;;6.00;91.90;;;;;;5044993;28;20084;-66
2020/12/27 09:39:06;;;;;;;0.80;0.80;;;5.90;92.10;;;;;;5044559;28;20059;-66
2020/12/27 09:41:36;;;;;;;0.93;0.80;;;6.00;92.10;;;;;;5044460;28;20060;-66
2020/12/27 09:44:03;;;;;;;0.70;0.70;;;6.10;92.10;;;;;;5044623;28;20060;-66
2020/12/27 09:46:46;;;;;;;0.60;0.60;;;5.90;92.40;;;;;;5043951;28;20041;-66
2020/12/27 09:49:32;;;;;;;0.70;0.70;;;5.90;92.10;;;;;;5044501;28;20057;-65
2020/12/27 09:52:11;;;;;;;0.75;0.75;;;6.10;92.20;;;;;;5044811;28;20117;-65
2020/12/27 09:54:42;;;;;;;0.77;0.77;;;6.10;92.20;;;;;;5044944;28;20075;-64
2020/12/27 09:57:10;;;;;;;;;;;6.00;92.70;;;;;;5045020;28;20045;-65
2020/12/27 09:59:36;;;;;;;0.60;0.60;;;6.10;92.20;;;;;;5044429;28;19925;-65
2020/12/27 10:02:03;;;;;;;0.70;0.70;;;6.20;92.30;;;;;;5044669;28;20045;-66
2020/12/27 10:04:29;;;;;;;0.68;0.68;;;6.10;92.30;;;;;;5040849;28;20041;-65
2020/12/27 10:06:55;;;;;;;1.23;0.77;;;6.10;92.40;;;;;;5045855;28;20056;-65
2020/12/27 10:09:21;;;;;;;0.65;0.65;;;6.20;92.10;;;;;;5044940;28;20056;-66
2020/12/27 10:11:46;;;;;;;0.50;0.50;;;6.20;91.90;;;;;;5045016;28;20041;-66
2020/12/27 10:14:12;;;;;;;0.75;0.70;;;6.20;92.20;;;;;;5044158;28;20094;-66
2020/12/27 10:16:38;;;;;;;0.80;0.60;;;6.20;92.10;;;;;;5044566;28;20076;-67
2020/12/27 10:19:04;;;;;;;0.47;0.47;;;6.20;92.00;;;;;;5044314;28;20045;-64
2020/12/27 10:21:30;;;;;;;0.82;0.50;;;6.10;92.20;;;;;;5044548;28;20037;-66
2020/12/27 10:23:56;;;;;;;0.50;0.50;;;6.20;91.90;;;;;;5044653;28;20079;-63
2020/12/27 10:26:21;;;;;;;0.60;0.60;;;6.20;92.00;;;;;;5045583;28;20042;-65
2020/12/27 10:28:47;;;;;;;0.50;0.50;;;6.20;92.00;;;;;;5044801;28;20041;-66
2020/12/27 10:31:13;;;;;;;0.75;0.65;;;6.10;92.20;;;;;;5044824;28;20100;-65
2020/12/27 10:33:39;;;;;;;0.50;0.50;;;6.10;92.30;;;;;;5044271;28;20137;-65
2020/12/27 10:36:05;;;;;;;0.57;0.57;;;6.20;92.20;;;;;;5044409;28;20091;-66
2020/12/27 10:38:31;;;;;;;0.40;0.40;;;6.20;91.80;;;;;;5045095;28;20049;-65
2020/12/27 10:40:59;;;;;;;1.95;1.10;;;6.20;91.90;;;;;;5045550;28;20045;-66
2020/12/27 10:43:25;;;;;;;0.52;0.52;;;6.10;91.90;;;;;;5045361;28;20190;-65
2020/12/27 10:45:57;;;;;;;0.80;0.80;;;6.20;92.20;;;;;;5044397;28;20055;-65
2020/12/27 10:48:23;;;;;;;0.63;0.60;;;6.20;91.70;;;;;;5044246;28;20116;-65
2020/12/27 10:50:49;;;;;;;1.17;0.60;;;6.20;92.10;;;;;;5044537;28;20044;-65
2020/12/27 10:53:15;;;;;;;0.70;0.70;;;6.10;91.80;;;;;;5044454;28;20691;-60
2020/12/27 10:55:46;;;;;;;0.50;0.50;;;6.20;91.80;;;;;;5044361;28;20042;-68
2020/12/27 10:58:12;;;;;;;0.50;0.50;;;6.20;92.00;;;;;;5041785;28;20120;-69
2020/12/27 11:00:38;;;;;;;0.40;0.40;;;6.30;91.90;;;;;;5042214;28;20049;-67
2020/12/27 11:03:04;;;;;;;0.75;0.75;;;6.30;92.10;;;;;;5044478;28;20420;-68
2020/12/27 11:05:29;;;;;;;0.70;0.70;;;6.20;91.90;;;;;;5043853;28;20065;-67
2020/12/27 11:07:55;;;;;;;1.35;1.20;;;6.20;91.90;;;;;;5034752;28;20280;-67
2020/12/27 11:10:21;;;;;;;1.55;0.85;;;6.20;92.00;;;;;;5017839;28;20144;-69
2020/12/27 11:12:47;;;;;;;0.70;0.70;;;6.30;91.80;;;;;;5039488;28;20045;-71
2020/12/27 11:15:15;;;;;;;1.58;1.48;;;6.20;92.20;;;;;;5063167;28;20037;-71
2020/12/27 11:17:42;;;;;;;1.10;1.00;;;6.20;91.90;;;;;;5059165;28;20185;-73
2020/12/27 11:20:08;;;;;;;1.42;1.20;;;6.20;91.90;;;;;;5057918;28;20060;-71
2020/12/27 11:22:36;;;;;;;1.40;0.90;;;6.20;91.60;;;;;;5036486;28;20116;-72
2020/12/27 11:25:03;;;;;;;1.63;1.50;;;6.10;91.60;;;;;;5041224;28;20115;-70
2020/12/27 11:27:29;;;;;;;1.30;1.13;;;6.10;91.80;;;;;;5037133;28;20045;-72
2020/12/27 11:29:56;;;;;;;1.80;1.40;;;6.10;91.50;;;;;;5041232;28;20061;-72
2020/12/27 11:32:23;;;;;;;1.33;1.23;;;6.10;91.40;;;;;;5053372;28;20084;-71
2020/12/27 11:34:49;;;;;;;1.38;1.27;;;5.90;91.40;;;;;;5026656;28;20098;-73
2020/12/27 11:37:15;;;;;;;1.40;1.30;;;6.00;91.50;;;;;;5037856;28;20089;-74
2020/12/27 11:39:41;;;;;;;2.17;1.63;;;6.00;91.10;;;;;;5033974;28;20080;-73
2020/12/27 11:42:07;;;;;;;5.13;2.60;;;5.90;91.30;;;;;;5040352;28;20056;-75
2020/12/27 11:44:33;;;;;;;9.02;3.92;;;5.80;91.30;;;;;;5038443;28;20064;-70
2020/12/27 11:47:03;;;;;;;1.65;1.55;;;5.70;91.40;;;;;;5036789;28;20049;-71
2020/12/27 11:49:29;;;;;;;2.60;2.10;;;5.80;91.40;;;;;;5036719;28;20053;-72
2020/12/27 11:51:54;;;;;;;2.55;2.17;;;5.70;91.50;;;;;;5044131;28;20140;-87
2020/12/27 11:54:20;;;;;;;1.83;1.73;;;5.60;91.50;;;;;;5038170;28;20451;-81
2020/12/27 11:56:46;;;;;;;2.90;1.55;;;5.80;91.40;;;;;;5046479;28;20068;-86
2020/12/27 11:59:12;;;;;;;1.85;1.50;;;5.80;91.40;;;;;;5037695;28;20052;-80
2020/12/27 12:01:38;;;;;;;1.73;1.63;;;5.70;91.30;;;;;;5050372;28;20045;-73
2020/12/27 12:04:04;;;;;;;1.00;1.00;;;5.70;91.30;;;;;;5035498;28;20110;-72
2020/12/27 12:06:30;;;;;;;1.02;1.02;;;5.70;91.60;;;;;;5046418;28;20437;-73
2020/12/27 12:08:57;;;;;;;1.38;1.30;;;5.70;91.60;;;;;;5031840;28;20052;-71
2020/12/27 12:11:23;;;;;;;1.15;1.15;;;5.60;91.60;;;;;;5056816;28;20113;-72
2020/12/27 12:13:50;;;;;;;1.52;1.42;;;5.60;91.80;;;;;;5045774;28;20160;-70
2020/12/27 12:16:21;;;;;;;2.97;2.67;;;5.70;91.70;;;;;;5066746;28;20037;-70
2020/12/27 12:18:47;;;;;;;4.70;1.90;;;5.70;91.80;;;;;;5050904;28;20071;-69
2020/12/27 12:21:14;;;;;;;1.73;1.60;;;5.70;92.00;;;;;;5065001;28;20048;-71
2020/12/27 12:23:40;;;;;;;1.52;1.40;;;5.70;91.70;;;;;;5051597;28;20055;-70
2020/12/27 12:26:05;;;;;;;1.48;1.38;;;5.70;91.40;;;;;;5036613;28;20037;-69
2020/12/27 12:28:31;;;;;;;1.55;1.20;;;5.70;91.60;;;;;;5041037;28;20064;-71
2020/12/27 12:30:57;;;;;;;2.33;1.70;;;5.70;91.80;;;;;;5037514;28;20140;-71
2020/12/27 12:33:23;;;;;;;1.63;1.52;;;5.80;91.50;;;;;;5038746;28;20037;-69
2020/12/27 12:35:49;;;;;;;2.78;1.73;;;5.70;91.70;;;;;;5036191;28;20034;-70
2020/12/27 12:38:16;;;;;;;2.50;2.00;;;5.60;91.90;;;;;;5039083;28;20072;-76
2020/12/27 12:40:42;;;;;;;1.83;1.70;;;5.70;91.90;;;;;;5029240;28;20045;-71
2020/12/27 12:43:08;;;;;;;1.25;1.20;;;5.70;91.80;;;;;;5040417;28;20041;-73
2020/12/27 12:45:34;;;;;;;2.13;1.80;;;5.70;91.90;;;;;;5044816;28;20105;-74
2020/12/27 12:48:00;;;;;;;1.88;1.65;;;5.70;91.30;;;;;;5056089;28;20104;-67
2020/12/27 12:50:26;;;;;;;1.73;1.63;;;5.70;91.60;;;;;;5064603;28;20045;-69
2020/12/27 12:52:52;;;;;;;15.38;11.77;;;5.60;91.80;;;;;;5050429;28;20048;-68
2020/12/27 12:55:18;;;;;;;1.25;1.15;;;5.50;92.20;;;;;;5049889;28;20037;-68
2020/12/27 12:57:46;;;;;;;1.45;1.30;;;5.70;91.80;;;;;;5056821;28;20489;-68
2020/12/27 13:00:11;;;;;;;1.50;1.40;;;5.70;91.90;;;;;;5052042;28;20072;-68
2020/12/27 13:02:37;;;;;;;3.05;1.58;;;5.80;91.70;;;;;;5055413;28;20053;-69